sensor_id;sensor_type;location;lat;lon;timestamp;P1;durP1;ratioP1;P2;durP2;ratioP2
11222;SDS011;5668;52.012;8.724;2024-03-22T00:01:56;30.17;;;24.40;;
11222;SDS011;5668;52.012;8.724;2024-03-22T00:04:43;31.07;;;25.20;;
11222;SDS011;5668;52.012;8.724;2024-03-22T00:07:16;30.37;;;23.90;;
11222;SDS011;5668;52.012;8.724;2024-03-22T00:09:47;31.27;;;23.93;;
11222;SDS011;5668;52.012;8.724;2024-03-22T00:12:14;31.77;;;25.90;;
11222;SDS011;5668;52.012;8.724;2024-03-22T00:14:42;32.53;;;25.43;;
11222;SDS011;5668;52.012;8.724;2024-03-22T00:17:14;30.23;;;24.60;;
11222;SDS011;5668;52.012;8.724;2024-03-22T00:19:41;33.40;;;25.77;;
11222;SDS011;5668;52.012;8.724;2024-03-22T00:22:07;30.90;;;24.50;;
11222;SDS011;5668;52.012;8.724;2024-03-22T00:24:34;28.03;;;24.43;;
11222;SDS011;5668;52.012;8.724;2024-03-22T00:27:01;32.00;;;25.40;;
11222;SDS011;5668;52.012;8.724;2024-03-22T00:29:28;30.83;;;25.47;;
11222;SDS011;5668;52.012;8.724;2024-03-22T00:31:56;31.50;;;24.93;;
11222;SDS011;5668;52.012;8.724;2024-03-22T00:34:23;32.70;;;25.67;;
11222;SDS011;5668;52.012;8.724;2024-03-22T00:36:49;31.47;;;26.00;;
11222;SDS011;5668;52.012;8.724;2024-03-22T00:39:16;34.00;;;25.70;;
11222;SDS011;5668;52.012;8.724;2024-03-22T00:41:43;31.23;;;25.40;;
11222;SDS011;5668;52.012;8.724;2024-03-22T00:44:10;31.03;;;25.03;;
11222;SDS011;5668;52.012;8.724;2024-03-22T00:46:36;31.90;;;26.10;;
11222;SDS011;5668;52.012;8.724;2024-03-22T00:49:05;32.60;;;25.30;;
11222;SDS011;5668;52.012;8.724;2024-03-22T00:51:31;33.63;;;25.77;;
11222;SDS011;5668;52.012;8.724;2024-03-22T00:53:58;34.80;;;26.30;;
11222;SDS011;5668;52.012;8.724;2024-03-22T00:56:24;32.23;;;25.77;;
11222;SDS011;5668;52.012;8.724;2024-03-22T00:58:51;30.97;;;24.17;;
11222;SDS011;5668;52.012;8.724;2024-03-22T01:01:18;31.10;;;26.63;;
11222;SDS011;5668;52.012;8.724;2024-03-22T01:03:46;33.97;;;25.43;;
11222;SDS011;5668;52.012;8.724;2024-03-22T01:06:13;33.77;;;25.50;;
11222;SDS011;5668;52.012;8.724;2024-03-22T01:08:40;31.53;;;25.07;;
11222;SDS011;5668;52.012;8.724;2024-03-22T01:11:07;31.03;;;25.17;;
11222;SDS011;5668;52.012;8.724;2024-03-22T01:13:34;31.10;;;26.30;;
11222;SDS011;5668;52.012;8.724;2024-03-22T01:16:00;33.80;;;26.33;;
11222;SDS011;5668;52.012;8.724;2024-03-22T01:18:27;32.37;;;25.47;;
11222;SDS011;5668;52.012;8.724;2024-03-22T01:20:54;34.43;;;26.60;;
11222;SDS011;5668;52.012;8.724;2024-03-22T01:23:22;33.83;;;26.80;;
11222;SDS011;5668;52.012;8.724;2024-03-22T01:25:48;33.73;;;25.97;;
11222;SDS011;5668;52.012;8.724;2024-03-22T01:28:15;32.00;;;25.30;;
11222;SDS011;5668;52.012;8.724;2024-03-22T01:30:42;34.57;;;26.20;;
11222;SDS011;5668;52.012;8.724;2024-03-22T01:33:09;31.93;;;25.60;;
11222;SDS011;5668;52.012;8.724;2024-03-22T01:35:35;32.57;;;25.03;;
11222;SDS011;5668;52.012;8.724;2024-03-22T01:38:03;35.30;;;25.73;;
11222;SDS011;5668;52.012;8.724;2024-03-22T01:40:30;33.07;;;25.83;;
11222;SDS011;5668;52.012;8.724;2024-03-22T01:42:58;33.93;;;26.30;;
11222;SDS011;5668;52.012;8.724;2024-03-22T01:45:25;31.70;;;25.43;;
11222;SDS011;5668;52.012;8.724;2024-03-22T01:47:57;34.80;;;25.67;;
11222;SDS011;5668;52.012;8.724;2024-03-22T01:50:24;34.80;;;26.80;;
11222;SDS011;5668;52.012;8.724;2024-03-22T01:52:52;33.07;;;25.43;;
11222;SDS011;5668;52.012;8.724;2024-03-22T01:55:18;31.47;;;25.13;;
11222;SDS011;5668;52.012;8.724;2024-03-22T01:57:47;34.97;;;26.10;;
11222;SDS011;5668;52.012;8.724;2024-03-22T02:00:14;35.00;;;25.30;;
11222;SDS011;5668;52.012;8.724;2024-03-22T02:02:42;33.40;;;25.03;;
11222;SDS011;5668;52.012;8.724;2024-03-22T02:05:12;34.90;;;25.47;;
11222;SDS011;5668;52.012;8.724;2024-03-22T02:07:40;33.97;;;25.30;;
11222;SDS011;5668;52.012;8.724;2024-03-22T02:10:07;36.43;;;25.40;;
11222;SDS011;5668;52.012;8.724;2024-03-22T02:12:37;35.13;;;25.47;;
11222;SDS011;5668;52.012;8.724;2024-03-22T02:15:05;33.17;;;25.07;;
11222;SDS011;5668;52.012;8.724;2024-03-22T02:17:33;35.67;;;24.87;;
11222;SDS011;5668;52.012;8.724;2024-03-22T02:20:00;33.83;;;25.67;;
11222;SDS011;5668;52.012;8.724;2024-03-22T02:22:29;31.60;;;25.10;;
11222;SDS011;5668;52.012;8.724;2024-03-22T02:24:57;36.30;;;26.23;;
11222;SDS011;5668;52.012;8.724;2024-03-22T02:27:24;34.80;;;25.20;;
11222;SDS011;5668;52.012;8.724;2024-03-22T02:29:51;34.30;;;24.10;;
11222;SDS011;5668;52.012;8.724;2024-03-22T02:32:18;35.40;;;24.87;;
11222;SDS011;5668;52.012;8.724;2024-03-22T02:34:44;34.10;;;25.37;;
11222;SDS011;5668;52.012;8.724;2024-03-22T02:37:11;36.47;;;24.30;;
11222;SDS011;5668;52.012;8.724;2024-03-22T02:39:37;32.77;;;24.30;;
11222;SDS011;5668;52.012;8.724;2024-03-22T02:42:06;33.47;;;24.10;;
11222;SDS011;5668;52.012;8.724;2024-03-22T02:44:33;33.63;;;24.60;;
11222;SDS011;5668;52.012;8.724;2024-03-22T02:47:03;32.03;;;23.90;;
11222;SDS011;5668;52.012;8.724;2024-03-22T02:49:29;34.03;;;24.10;;
11222;SDS011;5668;52.012;8.724;2024-03-22T02:51:57;31.53;;;23.67;;
11222;SDS011;5668;52.012;8.724;2024-03-22T02:54:23;32.40;;;23.87;;
11222;SDS011;5668;52.012;8.724;2024-03-22T02:56:50;34.60;;;24.70;;
11222;SDS011;5668;52.012;8.724;2024-03-22T02:59:18;32.77;;;23.03;;
11222;SDS011;5668;52.012;8.724;2024-03-22T03:01:45;32.13;;;23.73;;
11222;SDS011;5668;52.012;8.724;2024-03-22T03:04:11;34.30;;;24.50;;
11222;SDS011;5668;52.012;8.724;2024-03-22T03:06:38;31.03;;;23.40;;
11222;SDS011;5668;52.012;8.724;2024-03-22T03:09:04;30.40;;;23.57;;
11222;SDS011;5668;52.012;8.724;2024-03-22T03:11:35;31.13;;;22.63;;
11222;SDS011;5668;52.012;8.724;2024-03-22T03:14:02;36.20;;;24.70;;
11222;SDS011;5668;52.012;8.724;2024-03-22T03:16:30;34.80;;;23.80;;
11222;SDS011;5668;52.012;8.724;2024-03-22T03:18:57;30.30;;;22.13;;
11222;SDS011;5668;52.012;8.724;2024-03-22T03:21:24;31.60;;;23.37;;
11222;SDS011;5668;52.012;8.724;2024-03-22T03:23:50;31.60;;;23.70;;
11222;SDS011;5668;52.012;8.724;2024-03-22T03:26:17;30.60;;;23.20;;
11222;SDS011;5668;52.012;8.724;2024-03-22T03:28:44;31.90;;;22.53;;
11222;SDS011;5668;52.012;8.724;2024-03-22T03:31:11;32.43;;;23.87;;
11222;SDS011;5668;52.012;8.724;2024-03-22T03:33:38;33.13;;;23.50;;
11222;SDS011;5668;52.012;8.724;2024-03-22T03:36:06;34.30;;;23.73;;
11222;SDS011;5668;52.012;8.724;2024-03-22T03:38:32;31.53;;;22.13;;
11222;SDS011;5668;52.012;8.724;2024-03-22T03:41:02;33.10;;;24.30;;
11222;SDS011;5668;52.012;8.724;2024-03-22T03:43:29;30.83;;;22.80;;
11222;SDS011;5668;52.012;8.724;2024-03-22T03:45:56;30.47;;;22.80;;
11222;SDS011;5668;52.012;8.724;2024-03-22T03:48:22;33.80;;;23.80;;
11222;SDS011;5668;52.012;8.724;2024-03-22T03:50:54;33.53;;;23.67;;
11222;SDS011;5668;52.012;8.724;2024-03-22T03:53:24;32.47;;;22.63;;
11222;SDS011;5668;52.012;8.724;2024-03-22T03:55:51;31.53;;;23.27;;
11222;SDS011;5668;52.012;8.724;2024-03-22T03:58:17;30.77;;;22.73;;
11222;SDS011;5668;52.012;8.724;2024-03-22T04:00:44;30.27;;;22.70;;
11222;SDS011;5668;52.012;8.724;2024-03-22T04:03:11;33.20;;;22.80;;
11222;SDS011;5668;52.012;8.724;2024-03-22T04:05:38;30.37;;;21.57;;
11222;SDS011;5668;52.012;8.724;2024-03-22T04:08:06;29.77;;;21.57;;
11222;SDS011;5668;52.012;8.724;2024-03-22T04:10:33;30.70;;;21.90;;
11222;SDS011;5668;52.012;8.724;2024-03-22T04:12:59;33.93;;;21.80;;
11222;SDS011;5668;52.012;8.724;2024-03-22T04:15:27;33.77;;;21.70;;
11222;SDS011;5668;52.012;8.724;2024-03-22T04:17:55;27.67;;;20.50;;
11222;SDS011;5668;52.012;8.724;2024-03-22T04:20:23;28.90;;;20.30;;
11222;SDS011;5668;52.012;8.724;2024-03-22T04:22:49;29.53;;;20.63;;
11222;SDS011;5668;52.012;8.724;2024-03-22T04:25:18;30.03;;;20.83;;
11222;SDS011;5668;52.012;8.724;2024-03-22T04:27:44;28.93;;;21.27;;
11222;SDS011;5668;52.012;8.724;2024-03-22T04:30:12;29.60;;;21.07;;
11222;SDS011;5668;52.012;8.724;2024-03-22T04:32:38;30.03;;;20.63;;
11222;SDS011;5668;52.012;8.724;2024-03-22T04:35:06;29.83;;;20.97;;
11222;SDS011;5668;52.012;8.724;2024-03-22T04:37:32;29.30;;;20.50;;
11222;SDS011;5668;52.012;8.724;2024-03-22T04:39:59;29.13;;;20.03;;
11222;SDS011;5668;52.012;8.724;2024-03-22T04:42:29;28.20;;;20.53;;
11222;SDS011;5668;52.012;8.724;2024-03-22T04:44:56;27.73;;;19.60;;
11222;SDS011;5668;52.012;8.724;2024-03-22T04:47:23;29.67;;;19.97;;
11222;SDS011;5668;52.012;8.724;2024-03-22T04:49:50;28.60;;;20.47;;
11222;SDS011;5668;52.012;8.724;2024-03-22T04:52:17;29.13;;;20.77;;
11222;SDS011;5668;52.012;8.724;2024-03-22T04:54:43;27.03;;;19.53;;
11222;SDS011;5668;52.012;8.724;2024-03-22T04:57:12;31.80;;;19.60;;
11222;SDS011;5668;52.012;8.724;2024-03-22T04:59:40;27.10;;;20.03;;
11222;SDS011;5668;52.012;8.724;2024-03-22T05:02:07;30.77;;;19.23;;
11222;SDS011;5668;52.012;8.724;2024-03-22T05:04:33;26.60;;;20.10;;
11222;SDS011;5668;52.012;8.724;2024-03-22T05:07:01;25.27;;;18.53;;
11222;SDS011;5668;52.012;8.724;2024-03-22T05:09:28;25.50;;;18.77;;
11222;SDS011;5668;52.012;8.724;2024-03-22T05:11:57;32.70;;;19.73;;
11222;SDS011;5668;52.012;8.724;2024-03-22T05:14:24;28.90;;;19.73;;
11222;SDS011;5668;52.012;8.724;2024-03-22T05:16:51;27.73;;;19.00;;
11222;SDS011;5668;52.012;8.724;2024-03-22T05:19:19;26.40;;;19.17;;
11222;SDS011;5668;52.012;8.724;2024-03-22T05:21:45;26.07;;;17.87;;
11222;SDS011;5668;52.012;8.724;2024-03-22T05:24:12;25.10;;;17.67;;
11222;SDS011;5668;52.012;8.724;2024-03-22T05:26:38;27.50;;;18.73;;
11222;SDS011;5668;52.012;8.724;2024-03-22T05:29:06;23.80;;;17.80;;
11222;SDS011;5668;52.012;8.724;2024-03-22T05:31:32;24.80;;;17.40;;
11222;SDS011;5668;52.012;8.724;2024-03-22T05:34:14;26.83;;;18.57;;
11222;SDS011;5668;52.012;8.724;2024-03-22T05:36:41;27.20;;;18.57;;
11222;SDS011;5668;52.012;8.724;2024-03-22T05:39:08;26.63;;;19.03;;
11222;SDS011;5668;52.012;8.724;2024-03-22T05:41:35;27.73;;;18.23;;
11222;SDS011;5668;52.012;8.724;2024-03-22T05:44:03;26.87;;;18.07;;
11222;SDS011;5668;52.012;8.724;2024-03-22T05:46:30;24.70;;;17.87;;
11222;SDS011;5668;52.012;8.724;2024-03-22T05:48:57;27.17;;;18.13;;
11222;SDS011;5668;52.012;8.724;2024-03-22T05:51:25;23.63;;;18.33;;
11222;SDS011;5668;52.012;8.724;2024-03-22T05:53:52;25.43;;;17.57;;
11222;SDS011;5668;52.012;8.724;2024-03-22T05:56:18;27.40;;;18.60;;
11222;SDS011;5668;52.012;8.724;2024-03-22T05:58:45;23.23;;;17.73;;
11222;SDS011;5668;52.012;8.724;2024-03-22T06:01:12;22.93;;;16.87;;
11222;SDS011;5668;52.012;8.724;2024-03-22T06:03:39;27.67;;;18.13;;
11222;SDS011;5668;52.012;8.724;2024-03-22T06:06:05;24.60;;;16.97;;
11222;SDS011;5668;52.012;8.724;2024-03-22T06:08:34;22.93;;;15.63;;
11222;SDS011;5668;52.012;8.724;2024-03-22T06:11:04;23.30;;;16.37;;
11222;SDS011;5668;52.012;8.724;2024-03-22T06:13:32;22.70;;;16.27;;
11222;SDS011;5668;52.012;8.724;2024-03-22T06:15:58;26.10;;;17.13;;
11222;SDS011;5668;52.012;8.724;2024-03-22T06:18:25;25.30;;;16.67;;
11222;SDS011;5668;52.012;8.724;2024-03-22T06:20:52;24.73;;;17.57;;
11222;SDS011;5668;52.012;8.724;2024-03-22T06:23:20;24.50;;;16.93;;
11222;SDS011;5668;52.012;8.724;2024-03-22T06:25:52;24.33;;;17.00;;
11222;SDS011;5668;52.012;8.724;2024-03-22T06:28:19;22.50;;;15.93;;
11222;SDS011;5668;52.012;8.724;2024-03-22T06:30:45;23.47;;;16.10;;
11222;SDS011;5668;52.012;8.724;2024-03-22T06:33:13;23.80;;;16.50;;
11222;SDS011;5668;52.012;8.724;2024-03-22T06:35:40;24.77;;;16.27;;
11222;SDS011;5668;52.012;8.724;2024-03-22T06:38:07;23.23;;;17.07;;
11222;SDS011;5668;52.012;8.724;2024-03-22T06:40:34;25.73;;;17.87;;
11222;SDS011;5668;52.012;8.724;2024-03-22T06:43:03;23.53;;;16.43;;
11222;SDS011;5668;52.012;8.724;2024-03-22T06:45:29;26.27;;;17.17;;
11222;SDS011;5668;52.012;8.724;2024-03-22T06:47:57;22.37;;;15.90;;
11222;SDS011;5668;52.012;8.724;2024-03-22T06:50:24;23.17;;;16.50;;
11222;SDS011;5668;52.012;8.724;2024-03-22T06:52:51;22.37;;;17.37;;
11222;SDS011;5668;52.012;8.724;2024-03-22T06:55:18;22.57;;;16.73;;
11222;SDS011;5668;52.012;8.724;2024-03-22T06:57:46;23.90;;;16.47;;
11222;SDS011;5668;52.012;8.724;2024-03-22T07:00:14;21.33;;;16.03;;
11222;SDS011;5668;52.012;8.724;2024-03-22T07:02:42;22.27;;;15.40;;
11222;SDS011;5668;52.012;8.724;2024-03-22T07:05:09;24.77;;;17.20;;
11222;SDS011;5668;52.012;8.724;2024-03-22T07:07:37;24.57;;;15.53;;
11222;SDS011;5668;52.012;8.724;2024-03-22T07:10:05;20.73;;;15.57;;
11222;SDS011;5668;52.012;8.724;2024-03-22T07:12:34;24.03;;;15.93;;
11222;SDS011;5668;52.012;8.724;2024-03-22T07:15:00;20.63;;;15.13;;
11222;SDS011;5668;52.012;8.724;2024-03-22T07:17:30;20.10;;;15.00;;
11222;SDS011;5668;52.012;8.724;2024-03-22T07:19:56;21.17;;;15.63;;
11222;SDS011;5668;52.012;8.724;2024-03-22T07:22:24;20.27;;;14.63;;
11222;SDS011;5668;52.012;8.724;2024-03-22T07:24:50;19.83;;;15.67;;
11222;SDS011;5668;52.012;8.724;2024-03-22T07:27:17;22.17;;;15.30;;
11222;SDS011;5668;52.012;8.724;2024-03-22T07:29:43;20.67;;;14.97;;
11222;SDS011;5668;52.012;8.724;2024-03-22T07:32:11;21.37;;;15.00;;
11222;SDS011;5668;52.012;8.724;2024-03-22T07:34:38;21.40;;;15.70;;
11222;SDS011;5668;52.012;8.724;2024-03-22T07:37:05;19.90;;;15.10;;
11222;SDS011;5668;52.012;8.724;2024-03-22T07:39:32;19.77;;;15.60;;
11222;SDS011;5668;52.012;8.724;2024-03-22T07:42:00;20.47;;;15.33;;
11222;SDS011;5668;52.012;8.724;2024-03-22T07:44:28;22.87;;;16.23;;
11222;SDS011;5668;52.012;8.724;2024-03-22T07:46:55;21.13;;;15.23;;
11222;SDS011;5668;52.012;8.724;2024-03-22T07:49:21;20.57;;;15.07;;
11222;SDS011;5668;52.012;8.724;2024-03-22T07:51:49;18.07;;;13.67;;
11222;SDS011;5668;52.012;8.724;2024-03-22T07:54:18;20.50;;;14.77;;
11222;SDS011;5668;52.012;8.724;2024-03-22T07:56:45;21.07;;;15.43;;
11222;SDS011;5668;52.012;8.724;2024-03-22T07:59:11;20.40;;;15.17;;
11222;SDS011;5668;52.012;8.724;2024-03-22T08:01:38;20.03;;;14.80;;
11222;SDS011;5668;52.012;8.724;2024-03-22T08:04:05;19.77;;;14.60;;
11222;SDS011;5668;52.012;8.724;2024-03-22T08:06:32;21.70;;;14.67;;
11222;SDS011;5668;52.012;8.724;2024-03-22T08:09:00;16.90;;;13.73;;
11222;SDS011;5668;52.012;8.724;2024-03-22T08:11:28;23.40;;;14.90;;
11222;SDS011;5668;52.012;8.724;2024-03-22T08:13:54;20.83;;;14.43;;
11222;SDS011;5668;52.012;8.724;2024-03-22T08:16:27;20.17;;;14.83;;
11222;SDS011;5668;52.012;8.724;2024-03-22T08:18:53;18.17;;;14.10;;
11222;SDS011;5668;52.012;8.724;2024-03-22T08:21:21;20.47;;;13.80;;
11222;SDS011;5668;52.012;8.724;2024-03-22T08:23:47;16.80;;;13.73;;
11222;SDS011;5668;52.012;8.724;2024-03-22T08:26:16;18.60;;;14.43;;
11222;SDS011;5668;52.012;8.724;2024-03-22T08:28:43;17.10;;;13.30;;
11222;SDS011;5668;52.012;8.724;2024-03-22T08:31:10;18.00;;;14.23;;
11222;SDS011;5668;52.012;8.724;2024-03-22T08:33:37;18.23;;;13.47;;
11222;SDS011;5668;52.012;8.724;2024-03-22T08:36:04;17.83;;;13.63;;
11222;SDS011;5668;52.012;8.724;2024-03-22T08:38:31;19.17;;;13.77;;
11222;SDS011;5668;52.012;8.724;2024-03-22T08:40:58;16.13;;;13.70;;
11222;SDS011;5668;52.012;8.724;2024-03-22T08:43:26;15.37;;;12.27;;
11222;SDS011;5668;52.012;8.724;2024-03-22T08:45:54;18.87;;;13.17;;
11222;SDS011;5668;52.012;8.724;2024-03-22T08:48:20;15.77;;;13.20;;
11222;SDS011;5668;52.012;8.724;2024-03-22T08:50:48;16.13;;;12.63;;
11222;SDS011;5668;52.012;8.724;2024-03-22T08:53:14;17.17;;;12.17;;
11222;SDS011;5668;52.012;8.724;2024-03-22T08:55:45;17.53;;;13.13;;
11222;SDS011;5668;52.012;8.724;2024-03-22T08:58:11;17.90;;;13.53;;
11222;SDS011;5668;52.012;8.724;2024-03-22T09:00:41;17.33;;;13.83;;
11222;SDS011;5668;52.012;8.724;2024-03-22T09:03:07;18.00;;;13.43;;
11222;SDS011;5668;52.012;8.724;2024-03-22T09:05:34;15.87;;;13.43;;
11222;SDS011;5668;52.012;8.724;2024-03-22T09:08:01;16.50;;;12.70;;
11222;SDS011;5668;52.012;8.724;2024-03-22T09:10:29;15.87;;;13.60;;
11222;SDS011;5668;52.012;8.724;2024-03-22T09:12:56;17.67;;;13.27;;
11222;SDS011;5668;52.012;8.724;2024-03-22T09:15:23;15.60;;;13.40;;
11222;SDS011;5668;52.012;8.724;2024-03-22T09:17:51;15.73;;;13.30;;
11222;SDS011;5668;52.012;8.724;2024-03-22T09:20:18;16.33;;;12.90;;
11222;SDS011;5668;52.012;8.724;2024-03-22T09:22:45;15.90;;;12.67;;
11222;SDS011;5668;52.012;8.724;2024-03-22T09:25:13;15.37;;;12.43;;
11222;SDS011;5668;52.012;8.724;2024-03-22T09:27:39;14.67;;;12.40;;
11222;SDS011;5668;52.012;8.724;2024-03-22T09:30:07;14.63;;;11.90;;
11222;SDS011;5668;52.012;8.724;2024-03-22T09:32:35;14.93;;;11.80;;
11222;SDS011;5668;52.012;8.724;2024-03-22T09:35:03;13.87;;;11.60;;
11222;SDS011;5668;52.012;8.724;2024-03-22T09:37:30;13.87;;;11.20;;
11222;SDS011;5668;52.012;8.724;2024-03-22T09:39:57;13.70;;;10.97;;
11222;SDS011;5668;52.012;8.724;2024-03-22T09:42:24;14.20;;;11.17;;
11222;SDS011;5668;52.012;8.724;2024-03-22T09:44:55;11.90;;;10.33;;
11222;SDS011;5668;52.012;8.724;2024-03-22T09:47:21;14.67;;;11.47;;
11222;SDS011;5668;52.012;8.724;2024-03-22T09:49:50;13.70;;;11.23;;
11222;SDS011;5668;52.012;8.724;2024-03-22T09:52:18;13.37;;;10.57;;
11222;SDS011;5668;52.012;8.724;2024-03-22T09:54:47;12.93;;;10.60;;
11222;SDS011;5668;52.012;8.724;2024-03-22T09:57:14;12.73;;;10.05;;
11222;SDS011;5668;52.012;8.724;2024-03-22T09:59:42;13.57;;;10.07;;
11222;SDS011;5668;52.012;8.724;2024-03-22T10:02:09;13.43;;;9.90;;
11222;SDS011;5668;52.012;8.724;2024-03-22T10:04:38;11.07;;;9.27;;
11222;SDS011;5668;52.012;8.724;2024-03-22T10:07:05;11.60;;;9.83;;
11222;SDS011;5668;52.012;8.724;2024-03-22T10:09:34;13.50;;;10.73;;
11222;SDS011;5668;52.012;8.724;2024-03-22T10:12:01;11.27;;;9.93;;
11222;SDS011;5668;52.012;8.724;2024-03-22T10:14:29;11.90;;;9.80;;
11222;SDS011;5668;52.012;8.724;2024-03-22T10:16:56;13.83;;;10.30;;
11222;SDS011;5668;52.012;8.724;2024-03-22T10:19:23;14.00;;;9.43;;
11222;SDS011;5668;52.012;8.724;2024-03-22T10:22:00;10.83;;;9.67;;
11222;SDS011;5668;52.012;8.724;2024-03-22T10:24:28;11.87;;;9.47;;
11222;SDS011;5668;52.012;8.724;2024-03-22T10:26:55;12.23;;;9.75;;
11222;SDS011;5668;52.012;8.724;2024-03-22T10:29:23;11.57;;;9.43;;
11222;SDS011;5668;52.012;8.724;2024-03-22T10:31:49;13.55;;;10.15;;
11222;SDS011;5668;52.012;8.724;2024-03-22T10:34:18;13.85;;;9.90;;
11222;SDS011;5668;52.012;8.724;2024-03-22T10:36:45;12.13;;;9.80;;
11222;SDS011;5668;52.012;8.724;2024-03-22T10:39:15;12.07;;;9.67;;
11222;SDS011;5668;52.012;8.724;2024-03-22T10:41:43;12.77;;;9.57;;
11222;SDS011;5668;52.012;8.724;2024-03-22T10:44:13;11.63;;;10.23;;
11222;SDS011;5668;52.012;8.724;2024-03-22T10:46:42;10.80;;;9.67;;
11222;SDS011;5668;52.012;8.724;2024-03-22T10:49:12;13.13;;;10.37;;
11222;SDS011;5668;52.012;8.724;2024-03-22T10:51:42;13.05;;;9.90;;
11222;SDS011;5668;52.012;8.724;2024-03-22T10:54:12;12.23;;;9.45;;
11222;SDS011;5668;52.012;8.724;2024-03-22T10:56:42;12.43;;;10.80;;
11222;SDS011;5668;52.012;8.724;2024-03-22T10:59:13;15.43;;;10.68;;
11222;SDS011;5668;52.012;8.724;2024-03-22T11:01:44;13.95;;;11.20;;
11222;SDS011;5668;52.012;8.724;2024-03-22T11:04:12;13.15;;;10.32;;
11222;SDS011;5668;52.012;8.724;2024-03-22T11:06:41;14.30;;;10.83;;
11222;SDS011;5668;52.012;8.724;2024-03-22T11:09:18;14.70;;;10.65;;
11222;SDS011;5668;52.012;8.724;2024-03-22T11:11:47;13.77;;;11.10;;
11222;SDS011;5668;52.012;8.724;2024-03-22T11:14:18;14.40;;;10.77;;
11222;SDS011;5668;52.012;8.724;2024-03-22T11:16:49;17.70;;;11.48;;
11222;SDS011;5668;52.012;8.724;2024-03-22T11:19:16;14.50;;;11.67;;
11222;SDS011;5668;52.012;8.724;2024-03-22T11:21:43;14.67;;;11.40;;
11222;SDS011;5668;52.012;8.724;2024-03-22T11:24:09;15.25;;;11.88;;
11222;SDS011;5668;52.012;8.724;2024-03-22T11:26:37;15.10;;;11.70;;
11222;SDS011;5668;52.012;8.724;2024-03-22T11:29:03;16.65;;;11.50;;
11222;SDS011;5668;52.012;8.724;2024-03-22T11:31:32;15.50;;;11.00;;
11222;SDS011;5668;52.012;8.724;2024-03-22T11:33:58;13.63;;;10.60;;
11222;SDS011;5668;52.012;8.724;2024-03-22T11:36:25;12.43;;;10.37;;
11222;SDS011;5668;52.012;8.724;2024-03-22T11:38:52;14.05;;;11.25;;
11222;SDS011;5668;52.012;8.724;2024-03-22T11:41:20;13.60;;;11.10;;
11222;SDS011;5668;52.012;8.724;2024-03-22T11:43:51;14.50;;;11.60;;
11222;SDS011;5668;52.012;8.724;2024-03-22T11:46:19;13.90;;;10.88;;
11222;SDS011;5668;52.012;8.724;2024-03-22T11:48:51;15.65;;;11.32;;
11222;SDS011;5668;52.012;8.724;2024-03-22T11:51:19;14.23;;;11.93;;
11222;SDS011;5668;52.012;8.724;2024-03-22T11:53:49;15.23;;;12.50;;
11222;SDS011;5668;52.012;8.724;2024-03-22T11:56:18;15.07;;;12.48;;
11222;SDS011;5668;52.012;8.724;2024-03-22T11:58:45;15.63;;;12.98;;
11222;SDS011;5668;52.012;8.724;2024-03-22T12:01:14;14.25;;;12.27;;
11222;SDS011;5668;52.012;8.724;2024-03-22T12:03:42;14.85;;;13.25;;
11222;SDS011;5668;52.012;8.724;2024-03-22T12:06:11;15.25;;;12.50;;
11222;SDS011;5668;52.012;8.724;2024-03-22T12:08:37;14.95;;;12.73;;
11222;SDS011;5668;52.012;8.724;2024-03-22T12:11:06;19.45;;;12.95;;
11222;SDS011;5668;52.012;8.724;2024-03-22T12:13:33;15.18;;;12.43;;
11222;SDS011;5668;52.012;8.724;2024-03-22T12:16:01;15.00;;;12.63;;
11222;SDS011;5668;52.012;8.724;2024-03-22T12:18:28;16.25;;;12.68;;
11222;SDS011;5668;52.012;8.724;2024-03-22T12:20:55;15.25;;;13.10;;
11222;SDS011;5668;52.012;8.724;2024-03-22T12:23:23;17.25;;;14.00;;
11222;SDS011;5668;52.012;8.724;2024-03-22T12:25:50;18.20;;;14.77;;
11222;SDS011;5668;52.012;8.724;2024-03-22T12:28:17;16.60;;;14.77;;
11222;SDS011;5668;52.012;8.724;2024-03-22T12:30:44;18.00;;;13.57;;
11222;SDS011;5668;52.012;8.724;2024-03-22T12:33:11;17.77;;;14.80;;
11222;SDS011;5668;52.012;8.724;2024-03-22T12:35:39;16.73;;;14.77;;
11222;SDS011;5668;52.012;8.724;2024-03-22T12:38:05;19.23;;;15.48;;
11222;SDS011;5668;52.012;8.724;2024-03-22T12:40:36;19.87;;;15.37;;
11222;SDS011;5668;52.012;8.724;2024-03-22T12:43:02;19.33;;;16.13;;
11222;SDS011;5668;52.012;8.724;2024-03-22T12:45:30;20.25;;;15.45;;
11222;SDS011;5668;52.012;8.724;2024-03-22T12:47:57;18.13;;;16.25;;
11222;SDS011;5668;52.012;8.724;2024-03-22T12:50:25;17.98;;;14.52;;
11222;SDS011;5668;52.012;8.724;2024-03-22T12:52:52;20.17;;;15.37;;
11222;SDS011;5668;52.012;8.724;2024-03-22T12:55:20;19.58;;;15.43;;
11222;SDS011;5668;52.012;8.724;2024-03-22T12:57:47;19.45;;;16.45;;
11222;SDS011;5668;52.012;8.724;2024-03-22T13:00:15;19.45;;;15.80;;
11222;SDS011;5668;52.012;8.724;2024-03-22T13:02:43;19.08;;;16.42;;
11222;SDS011;5668;52.012;8.724;2024-03-22T13:05:11;20.63;;;16.13;;
11222;SDS011;5668;52.012;8.724;2024-03-22T13:07:38;19.67;;;16.37;;
11222;SDS011;5668;52.012;8.724;2024-03-22T13:10:06;17.87;;;15.80;;
11222;SDS011;5668;52.012;8.724;2024-03-22T13:12:33;22.13;;;16.10;;
11222;SDS011;5668;52.012;8.724;2024-03-22T13:15:02;17.73;;;15.90;;
11222;SDS011;5668;52.012;8.724;2024-03-22T13:17:29;18.03;;;15.77;;
11222;SDS011;5668;52.012;8.724;2024-03-22T13:19:56;18.93;;;16.33;;
11222;SDS011;5668;52.012;8.724;2024-03-22T13:22:22;22.50;;;16.67;;
11222;SDS011;5668;52.012;8.724;2024-03-22T13:24:50;18.27;;;16.13;;
11222;SDS011;5668;52.012;8.724;2024-03-22T13:27:16;19.17;;;16.57;;
11222;SDS011;5668;52.012;8.724;2024-03-22T13:29:47;19.80;;;15.90;;
11222;SDS011;5668;52.012;8.724;2024-03-22T13:32:15;19.13;;;16.97;;
11222;SDS011;5668;52.012;8.724;2024-03-22T13:34:44;21.00;;;17.03;;
11222;SDS011;5668;52.012;8.724;2024-03-22T13:37:11;23.77;;;18.17;;
11222;SDS011;5668;52.012;8.724;2024-03-22T13:39:38;19.10;;;15.63;;
11222;SDS011;5668;52.012;8.724;2024-03-22T13:42:04;18.80;;;16.67;;
11222;SDS011;5668;52.012;8.724;2024-03-22T13:44:32;18.20;;;16.33;;
11222;SDS011;5668;52.012;8.724;2024-03-22T13:46:59;19.30;;;17.30;;
11222;SDS011;5668;52.012;8.724;2024-03-22T13:49:27;22.20;;;17.50;;
11222;SDS011;5668;52.012;8.724;2024-03-22T13:51:54;21.10;;;17.65;;
11222;SDS011;5668;52.012;8.724;2024-03-22T13:54:24;19.67;;;17.57;;
11222;SDS011;5668;52.012;8.724;2024-03-22T13:56:50;20.50;;;17.47;;
11222;SDS011;5668;52.012;8.724;2024-03-22T13:59:17;22.40;;;17.77;;
11222;SDS011;5668;52.012;8.724;2024-03-22T14:01:44;20.30;;;16.83;;
11222;SDS011;5668;52.012;8.724;2024-03-22T14:04:12;22.37;;;18.40;;
11222;SDS011;5668;52.012;8.724;2024-03-22T14:06:41;21.37;;;17.63;;
11222;SDS011;5668;52.012;8.724;2024-03-22T14:09:08;20.80;;;17.10;;
11222;SDS011;5668;52.012;8.724;2024-03-22T14:11:35;19.70;;;17.13;;
11222;SDS011;5668;52.012;8.724;2024-03-22T14:14:02;22.10;;;18.60;;
11222;SDS011;5668;52.012;8.724;2024-03-22T14:16:29;19.90;;;17.70;;
11222;SDS011;5668;52.012;8.724;2024-03-22T14:18:56;21.90;;;18.10;;
11222;SDS011;5668;52.012;8.724;2024-03-22T14:21:23;21.03;;;18.77;;
11222;SDS011;5668;52.012;8.724;2024-03-22T14:23:51;20.50;;;18.17;;
11222;SDS011;5668;52.012;8.724;2024-03-22T14:26:18;20.60;;;18.30;;
11222;SDS011;5668;52.012;8.724;2024-03-22T14:28:45;21.70;;;17.60;;
11222;SDS011;5668;52.012;8.724;2024-03-22T14:31:12;23.00;;;18.70;;
11222;SDS011;5668;52.012;8.724;2024-03-22T14:33:39;23.90;;;17.60;;
11222;SDS011;5668;52.012;8.724;2024-03-22T14:36:06;22.67;;;17.37;;
11222;SDS011;5668;52.012;8.724;2024-03-22T14:38:34;22.50;;;18.77;;